Time;durP1;ratioP1;P1;durP2;ratioP2;P2;SDS_P1;SDS_P2;PMS_P1;PMS_P2;Temp;Humidity;BMP_temperature;BMP_pressure;BME280_temperature;BME280_humidity;BME280_pressure;Samples;Min_cycle;Max_cycle;Signal;HPM_P1;HPM_P2
2023/12/26 00:00:23;;;;;;;17.10;7.03;;;;;;;-0.12;67.28;96859.94;4847867;29;20045;-73
2023/12/26 00:02:49;;;;;;;10.05;5.93;;;;;;;-0.04;67.92;96881.16;4848850;29;20049;-72
2023/12/26 00:05:18;;;;;;;13.70;6.53;;;;;;;-0.12;68.00;96860.81;4853431;29;20380;-72
2023/12/26 00:07:45;;;;;;;11.38;6.88;;;;;;;-0.67;68.19;96766.09;4848289;29;20136;-73
2023/12/26 00:10:15;;;;;;;13.05;6.68;;;;;;;-0.18;67.59;96832.75;4863597;29;20499;-73
2023/12/26 00:12:42;;;;;;;14.50;6.85;;;;;;;-0.20;68.19;96839.59;4846386;29;20098;-72
2023/12/26 00:15:11;;;;;;;14.70;6.97;;;;;;;-0.38;67.99;96815.97;4864073;29;20052;-73
2023/12/26 00:17:53;;;;;;;14.05;6.72;;;;;;;-0.54;68.46;96784.66;4849488;29;20097;-74
2023/12/26 00:20:34;;;;;;;14.30;6.95;;;;;;;-0.10;68.36;96845.44;4878295;29;20053;-70
2023/12/26 00:23:00;;;;;;;14.65;7.47;;;;;;;-0.20;67.55;96821.69;4860641;29;20048;-72
2023/12/26 00:25:27;;;;;;;12.60;7.03;;;;;;;0.05;68.31;96852.06;4866117;29;20057;-73
2023/12/26 00:27:59;;;;;;;14.77;7.07;;;;;;;0.08;68.37;96857.13;4862975;29;20071;-70
2023/12/26 00:30:28;;;;;;;11.50;6.15;;;;;;;-0.22;68.00;96803.81;4849144;29;20068;-71
2023/12/26 00:32:55;;;;;;;14.35;7.40;;;;;;;-0.11;68.43;96825.84;4846942;29;20059;-70
2023/12/26 00:35:21;;;;;;;15.30;7.28;;;;;;;-0.26;68.04;96801.34;4877214;29;20055;-71
2023/12/26 00:37:48;;;;;;;14.35;7.65;;;;;;;-0.19;68.49;96816.56;4861287;29;20037;-70
2023/12/26 00:40:23;;;;;;;16.80;7.57;;;;;;;-0.35;68.48;96781.84;4879324;29;20079;-71
2023/12/26 00:42:49;;;;;;;13.63;7.78;;;;;;;-0.24;68.75;96797.91;4879908;29;20098;-74
2023/12/26 00:45:25;;;;;;;15.32;7.40;;;;;;;-0.01;68.73;96825.69;4878750;29;20140;-75
2023/12/26 00:48:00;;;;;;;12.32;6.60;;;;;;;-0.18;68.95;96817.41;4865349;29;20067;-74
2023/12/26 00:50:26;;;;;;;15.38;7.97;;;;;;;-0.53;68.55;96758.25;4866363;29;20049;-74
2023/12/26 00:53:00;;;;;;;16.65;7.43;;;;;;;-0.74;69.17;96710.84;4860051;29;20413;-74
2023/12/26 00:55:35;;;;;;;14.45;6.43;;;;;;;-0.96;69.37;96660.06;4847268;29;20040;-75
2023/12/26 00:58:03;;;;;;;14.15;7.25;;;;;;;-0.72;69.12;96682.75;4863451;29;20055;-75
2023/12/26 01:00:35;;;;;;;15.90;7.55;;;;;;;-0.59;68.70;96719.19;4865586;29;20041;-74
2023/12/26 01:03:07;;;;;;;13.82;6.85;;;;;;;0.16;69.69;96819.47;4879611;29;20049;-74
2023/12/26 01:05:33;;;;;;;;;;;;;;;0.35;69.21;96826.88;4848570;29;20053;-74
2023/12/26 01:07:59;;;;;;;13.75;7.00;;;;;;;-0.28;69.15;96723.84;4867456;29;19919;-74
2023/12/26 01:10:26;;;;;;;13.80;7.47;;;;;;;-0.20;69.23;96714.34;4877717;29;20048;-74
2023/12/26 01:13:03;;;;;;;16.30;7.80;;;;;;;-0.13;69.25;96713.41;4865380;29;20101;-74
2023/12/26 01:15:33;;;;;;;14.68;7.78;;;;;;;-0.09;68.93;96712.47;4865872;29;20497;-71
2023/12/26 01:17:59;;;;;;;17.05;7.55;;;;;;;0.35;69.65;96776.56;4845384;29;20044;-72
2023/12/26 01:20:25;;;;;;;13.75;7.03;;;;;;;0.11;68.92;96732.63;4876505;29;20064;-72
2023/12/26 01:22:54;;;;;;;15.93;7.70;;;;;;;0.34;69.10;96763.78;4846503;29;20498;-71
2023/12/26 01:25:20;;;;;;;14.60;7.65;;;;;;;0.20;69.54;96734.16;4865495;29;20064;-71
2023/12/26 01:27:47;;;;;;;14.25;7.07;;;;;;;0.16;68.91;96724.03;4849990;29;20052;-72
2023/12/26 01:30:14;;;;;;;13.05;6.88;;;;;;;0.26;69.38;96749.44;4859972;29;20049;-73
2023/12/26 01:32:40;;;;;;;14.18;7.32;;;;;;;0.15;69.12;96743.63;4876789;29;20041;-74
2023/12/26 01:35:07;;;;;;;14.20;6.97;;;;;;;0.38;68.55;96791.00;4864583;29;20390;-71
2023/12/26 01:37:37;;;;;;;14.50;7.60;;;;;;;0.50;69.24;96811.31;4879597;29;20052;-71
2023/12/26 01:40:06;;;;;;;15.02;7.47;;;;;;;0.20;69.23;96771.72;4878741;29;20040;-72
2023/12/26 01:42:57;;;;;;;14.43;7.65;;;;;;;0.25;69.06;96801.44;4879726;29;20051;-71
2023/12/26 01:45:28;;;;;;;14.38;7.53;;;;;;;0.24;69.64;96791.22;4863940;29;20045;-70
2023/12/26 01:47:59;;;;;;;16.80;7.80;;;;;;;0.02;69.61;96762.59;4862430;29;20052;-71
2023/12/26 01:50:29;;;;;;;15.85;7.57;;;;;;;0.22;69.86;96790.44;4850089;29;20040;-73
2023/12/26 01:52:58;;;;;;;17.40;7.65;;;;;;;0.08;69.70;96749.72;4876085;29;20045;-74
2023/12/26 01:55:25;;;;;;;15.30;7.50;;;;;;;-0.03;68.74;96719.22;4875815;29;20061;-73
2023/12/26 01:57:54;;;;;;;18.25;8.23;;;;;;;-0.13;69.20;96733.84;4875762;29;20048;-72
2023/12/26 02:00:23;;;;;;;15.73;8.18;;;;;;;0.37;69.54;96820.03;4860890;29;21648;-72
2023/12/26 02:02:52;;;;;;;16.15;8.45;;;;;;;0.18;69.49;96783.66;4832357;29;20037;-73
2023/12/26 02:05:21;;;;;;;14.70;7.15;;;;;;;0.16;69.67;96787.97;4860149;29;20717;-73
2023/12/26 02:07:55;;;;;;;14.48;7.15;;;;;;;0.27;70.19;96804.84;4861643;29;20689;-71
2023/12/26 02:10:29;;;;;;;13.32;7.13;;;;;;;0.18;69.94;96793.91;4861443;29;20053;-72
2023/12/26 02:12:56;;;;;;;14.68;6.88;;;;;;;0.23;69.52;96799.78;4876731;29;20045;-74
2023/12/26 02:15:29;;;;;;;14.32;7.53;;;;;;;0.32;69.54;96807.31;4844425;29;20048;-72
2023/12/26 02:17:57;;;;;;;15.48;7.28;;;;;;;0.38;69.56;96808.91;4849568;29;20053;-71
2023/12/26 02:20:34;;;;;;;15.65;7.75;;;;;;;0.05;69.79;96742.09;4861146;29;20424;-72
2023/12/26 02:23:03;;;;;;;15.95;7.03;;;;;;;0.41;69.54;96791.81;4880417;29;20055;-73
2023/12/26 02:25:32;;;;;;;16.90;8.00;;;;;;;0.37;69.69;96782.50;4860192;29;20045;-72
2023/12/26 02:28:07;;;;;;;14.57;7.20;;;;;;;0.48;70.30;96792.56;4877915;29;20128;-72
2023/12/26 02:30:40;;;;;;;15.07;7.35;;;;;;;0.58;69.50;96814.56;4844819;29;20098;-73
2023/12/26 02:33:09;;;;;;;16.35;8.20;;;;;;;0.59;69.73;96808.56;4860767;29;20041;-72
2023/12/26 02:35:41;;;;;;;17.27;8.15;;;;;;;0.19;69.92;96739.31;4848533;29;20041;-73
2023/12/26 02:38:08;;;;;;;18.52;8.70;;;;;;;0.26;69.65;96740.91;4877704;29;20098;-73
2023/12/26 02:40:36;;;;;;;15.90;7.70;;;;;;;0.53;69.86;96785.66;4865656;29;20045;-72
2023/12/26 02:43:02;;;;;;;16.88;7.75;;;;;;;0.62;69.38;96819.63;4872785;29;20132;-71
2023/12/26 02:45:29;;;;;;;18.08;8.32;;;;;;;0.51;70.00;96792.50;4861108;29;20052;-72
2023/12/26 02:48:07;;;;;;;18.40;8.00;;;;;;;0.36;69.73;96749.25;4861789;29;20075;-73
2023/12/26 02:50:43;;;;;;;15.32;7.95;;;;;;;0.36;69.94;96736.47;4859654;29;20053;-74
2023/12/26 02:53:10;;;;;;;14.25;6.80;;;;;;;0.81;70.22;96821.00;4860905;29;20048;-74
2023/12/26 02:55:41;;;;;;;15.55;7.57;;;;;;;0.53;69.36;96774.56;4863465;29;20041;-73
2023/12/26 02:58:11;;;;;;;13.80;6.68;;;;;;;0.55;69.80;96799.25;4865681;29;20044;-75
2023/12/26 03:00:58;;;;;;;16.90;8.13;;;;;;;0.53;69.46;96795.91;4862368;29;20045;-76
2023/12/26 03:03:25;;;;;;;18.92;7.93;;;;;;;0.68;69.96;96822.91;4856694;29;20137;-75
2023/12/26 03:05:51;;;;;;;15.65;7.80;;;;;;;0.05;70.07;96706.31;4878210;29;20061;-76
2023/12/26 03:08:29;;;;;;;16.33;8.20;;;;;;;0.73;70.00;96820.31;4849191;29;20041;-75
2023/12/26 03:10:59;;;;;;;14.30;7.28;;;;;;;0.25;69.79;96745.19;4850037;29;20087;-76
2023/12/26 03:13:25;;;;;;;15.85;7.85;;;;;;;0.50;69.65;96780.59;4865298;29;20037;-76
2023/12/26 03:15:58;;;;;;;14.05;6.63;;;;;;;0.75;70.22;96803.22;4878115;29;20519;-76
2023/12/26 03:18:53;;;;;;;14.63;7.18;;;;;;;0.59;70.03;96771.91;4867369;29;20041;-74
2023/12/26 03:21:22;;;;;;;14.68;7.68;;;;;;;0.54;69.77;96751.53;4879200;29;20127;-76
2023/12/26 03:23:54;;;;;;;13.98;7.28;;;;;;;0.39;69.97;96732.16;4861693;29;20904;-77
2023/12/26 03:26:25;;;;;;;12.85;6.75;;;;;;;0.50;69.64;96733.66;4877770;29;20053;-77
2023/12/26 03:28:58;;;;;;;15.20;7.22;;;;;;;0.70;70.18;96771.72;4861724;29;20094;-76
2023/12/26 03:31:25;;;;;;;13.60;6.40;;;;;;;0.15;69.68;96697.59;4859777;29;20064;-76
2023/12/26 03:33:51;;;;;;;14.18;7.10;;;;;;;0.25;69.79;96698.28;4848523;29;20073;-76
2023/12/26 03:36:24;;;;;;;15.48;7.60;;;;;;;0.72;69.87;96787.91;4865293;29;20045;-75
2023/12/26 03:38:50;;;;;;;12.68;6.85;;;;;;;0.92;69.62;96809.75;4878084;29;20052;-77
2023/12/26 03:41:23;;;;;;;13.73;7.18;;;;;;;0.62;69.97;96764.19;4851766;29;20045;-74
2023/12/26 03:43:57;;;;;;;14.95;7.50;;;;;;;0.95;69.61;96813.06;4845861;29;20412;-75
2023/12/26 03:46:23;;;;;;;14.35;7.20;;;;;;;0.83;69.38;96821.81;4874651;29;20045;-74
2023/12/26 03:48:57;;;;;;;15.27;7.22;;;;;;;0.92;69.61;96828.50;4846455;29;20041;-76
2023/12/26 03:51:41;;;;;;;14.93;6.68;;;;;;;0.83;69.67;96795.38;4862021;29;20053;-74
2023/12/26 03:54:27;;;;;;;14.85;7.18;;;;;;;0.96;69.35;96801.13;4861604;29;20535;-76
2023/12/26 03:57:04;;;;;;;14.73;7.10;;;;;;;0.57;69.34;96741.22;4875172;29;20045;-75
2023/12/26 03:59:30;;;;;;;20.23;6.72;;;;;;;0.65;69.48;96745.34;4861213;29;20049;-74
2023/12/26 04:01:56;;;;;;;12.10;6.68;;;;;;;0.49;69.35;96712.38;4875577;29;20049;-73
2023/12/26 04:04:23;;;;;;;13.07;6.30;;;;;;;0.56;69.61;96736.97;4830418;29;20135;-74
2023/12/26 04:06:49;;;;;;;14.50;7.07;;;;;;;0.56;69.74;96724.16;4875563;29;20574;-74
2023/12/26 04:09:23;;;;;;;14.77;6.95;;;;;;;0.92;69.88;96790.09;4848137;29;20057;-75
2023/12/26 04:11:55;;;;;;;15.35;7.68;;;;;;;-0.04;69.14;96649.31;4861826;29;20432;-74
2023/12/26 04:14:30;;;;;;;15.30;7.43;;;;;;;0.39;69.66;96733.84;4849354;29;20045;-76
2023/12/26 04:16:59;;;;;;;14.35;7.20;;;;;;;1.15;69.35;96837.47;4857724;29;20467;-76
2023/12/26 04:19:30;;;;;;;18.20;8.32;;;;;;;0.56;69.67;96742.06;4841288;29;20064;-73
2023/12/26 04:22:19;;;;;;;21.10;8.70;;;;;;;0.90;69.20;96787.56;4842594;29;20136;-74
2023/12/26 04:24:49;;;;;;;21.90;9.20;;;;;;;1.28;69.15;96840.66;4860927;29;20049;-74
2023/12/26 04:27:16;;;;;;;20.23;9.25;;;;;;;0.72;69.50;96731.59;4871544;29;20476;-73
2023/12/26 04:29:53;;;;;;;18.17;8.90;;;;;;;0.80;69.06;96745.06;4859960;29;20045;-73
2023/12/26 04:32:36;;;;;;;;;;;;;;;;;;;;;
2023/12/26 04:35:22;;;;;;;15.40;7.68;;;;;;;1.01;69.42;96769.44;4861174;29;20059;-74
2023/12/26 04:37:49;;;;;;;18.17;7.93;;;;;;;1.47;68.78;96847.09;4863887;29;20041;-75
2023/12/26 04:40:15;;;;;;;15.50;8.07;;;;;;;1.19;69.38;96782.75;4847691;29;20053;-73
2023/12/26 04:42:45;;;;;;;18.52;8.07;;;;;;;1.17;69.35;96766.56;4846657;29;20061;-73
2023/12/26 04:45:16;;;;;;;17.15;7.65;;;;;;;1.70;69.50;96850.94;4862413;29;20049;-74
2023/12/26 04:47:43;;;;;;;14.55;7.43;;;;;;;1.11;69.49;96756.44;4862839;29;20119;-75
2023/12/26 04:50:18;;;;;;;13.95;6.97;;;;;;;1.48;69.24;96820.59;4866393;29;20105;-74
2023/12/26 04:52:46;;;;;;;15.70;7.13;;;;;;;1.42;69.14;96795.13;4836612;29;20087;-74
2023/12/26 04:55:12;;;;;;;11.98;6.30;;;;;;;1.50;69.20;96810.34;4862189;29;20133;-74
2023/12/26 04:57:39;;;;;;;15.73;7.07;;;;;;;1.81;68.79;96853.28;4851147;29;20037;-75
2023/12/26 05:00:17;;;;;;;13.00;6.88;;;;;;;1.63;69.01;96827.16;4864657;29;20069;-74
2023/12/26 05:02:58;;;;;;;12.02;6.63;;;;;;;1.55;69.09;96811.06;4853444;29;20041;-74
2023/12/26 05:05:32;;;;;;;13.15;6.30;;;;;;;1.92;69.20;96871.00;4865616;29;20061;-71
2023/12/26 05:07:58;;;;;;;9.82;5.75;;;;;;;1.68;68.88;96850.13;4866320;29;20041;-74
2023/12/26 05:10:33;;;;;;;11.32;5.90;;;;;;;1.77;69.07;96867.88;4878557;29;20037;-73
2023/12/26 05:13:03;;;;;;;11.82;6.45;;;;;;;1.37;68.82;96814.88;4867265;29;20041;-74
2023/12/26 05:15:29;;;;;;;14.10;6.63;;;;;;;1.40;69.41;96814.81;4862248;29;20040;-75
2023/12/26 05:18:04;;;;;;;13.63;6.32;;;;;;;1.58;69.18;96840.94;4835737;29;20060;-74
2023/12/26 05:20:30;;;;;;;13.45;6.85;;;;;;;1.88;69.04;96882.19;4872636;29;20041;-74
2023/12/26 05:22:59;;;;;;;14.57;7.28;;;;;;;1.80;69.21;96874.66;4880734;29;20531;-73
2023/12/26 05:25:30;;;;;;;12.02;6.25;;;;;;;1.60;69.37;96832.34;4858990;29;20375;-73
2023/12/26 05:28:00;;;;;;;13.73;6.80;;;;;;;1.65;69.22;96845.06;4877945;29;20114;-73
2023/12/26 05:30:35;;;;;;;12.93;6.45;;;;;;;0.82;69.48;96714.34;4864378;29;20068;-73
2023/12/26 05:33:03;;;;;;;15.02;6.60;;;;;;;1.02;69.10;96748.06;4862361;29;20045;-74
2023/12/26 05:35:29;;;;;;;14.38;6.97;;;;;;;1.56;68.95;96837.56;4863962;29;20045;-74
2023/12/26 05:38:00;;;;;;;12.60;6.57;;;;;;;1.90;69.59;96885.56;4850650;29;20037;-74
2023/12/26 05:40:27;;;;;;;11.52;6.53;;;;;;;1.77;69.20;96869.59;4863777;29;20048;-73
2023/12/26 05:42:56;;;;;;;13.27;6.47;;;;;;;1.92;69.50;96888.94;4866747;29;20048;-74
2023/12/26 05:45:32;;;;;;;13.38;6.60;;;;;;;1.88;69.74;96897.59;4862112;29;20136;-77
2023/12/26 05:47:58;;;;;;;15.00;6.10;;;;;;;1.87;69.39;96894.19;4849892;29;20128;-78
2023/12/26 05:50:26;;;;;;;12.55;6.03;;;;;;;1.52;69.58;96848.75;4850752;29;20049;-76
2023/12/26 05:52:53;;;;;;;12.77;6.60;;;;;;;1.47;69.38;96861.66;4877473;29;20033;-77
2023/12/26 05:55:33;;;;;;;15.23;6.32;;;;;;;1.76;69.34;96911.53;4878373;29;20045;-76
2023/12/26 05:57:59;;;;;;;12.50;5.57;;;;;;;1.39;69.99;96837.88;4852050;29;20596;-77
2023/12/26 06:00:28;;;;;;;11.90;6.57;;;;;;;1.56;70.18;96851.22;4864756;29;20060;-79
2023/12/26 06:03:02;;;;;;;10.95;6.18;;;;;;;1.67;70.11;96874.06;4877867;29;20059;-74
2023/12/26 06:05:29;;;;;;;16.80;6.57;;;;;;;2.13;69.95;96940.69;4857634;29;20050;-74
2023/12/26 06:07:59;;;;;;;13.32;6.35;;;;;;;1.98;69.78;96929.03;4848578;29;20036;-73
2023/12/26 06:10:41;;;;;;;14.57;6.88;;;;;;;1.42;69.80;96822.44;4849152;29;20072;-78
2023/12/26 06:13:07;;;;;;;15.10;6.75;;;;;;;1.50;69.72;96824.00;4876175;29;20043;-71
2023/12/26 06:15:34;;;;;;;16.95;7.30;;;;;;;2.28;69.69;96960.91;4877837;29;20044;-75
2023/12/26 06:18:05;;;;;;;15.10;7.15;;;;;;;1.88;70.05;96890.75;4861199;29;20057;-76
2023/12/26 06:20:39;;;;;;;17.15;7.80;;;;;;;2.27;69.74;96961.78;4861314;29;20048;-76
2023/12/26 06:23:07;;;;;;;16.05;7.55;;;;;;;1.84;69.99;96888.28;4866374;29;20048;-77
2023/12/26 06:25:33;;;;;;;15.40;7.40;;;;;;;1.73;70.24;96862.88;4850862;29;20056;-75
2023/12/26 06:28:03;;;;;;;18.90;8.40;;;;;;;1.67;70.27;96842.47;4846441;29;20048;-74
2023/12/26 06:30:30;;;;;;;18.98;8.25;;;;;;;1.91;70.36;96859.91;4875230;29;20128;-76
2023/12/26 06:32:59;;;;;;;19.05;8.75;;;;;;;2.48;69.73;96951.94;4865282;29;20045;-76
2023/12/26 06:35:29;;;;;;;20.63;8.75;;;;;;;2.40;69.59;96947.81;4861232;29;20060;-71
2023/12/26 06:37:55;;;;;;;17.75;8.23;;;;;;;2.05;70.10;96887.84;4859402;29;20056;-72
2023/12/26 06:40:33;;;;;;;15.27;7.88;;;;;;;2.28;70.15;96930.13;4863575;29;20048;-75
2023/12/26 06:43:23;;;;;;;18.95;7.88;;;;;;;1.90;70.14;96883.88;4863552;29;20094;-77
2023/12/26 06:46:14;;;;;;;17.50;8.55;;;;;;;2.61;70.18;97007.25;4865657;29;20051;-76
2023/12/26 06:48:41;;;;;;;17.15;7.20;;;;;;;2.53;69.70;97007.44;4861391;29;20049;-76
2023/12/26 06:51:09;;;;;;;23.35;8.40;;;;;;;2.14;69.74;96952.63;4846815;29;20048;-76
2023/12/26 06:53:56;;;;;;;18.00;8.00;;;;;;;2.39;70.36;96978.66;4876464;29;20045;-76
2023/12/26 06:56:26;;;;;;;17.80;8.40;;;;;;;2.28;70.20;96968.63;4860576;29;20052;-76
2023/12/26 06:58:58;;;;;;;17.95;8.45;;;;;;;2.06;70.50;96932.28;4878060;29;20501;-78
2023/12/26 07:01:28;;;;;;;13.55;6.80;;;;;;;2.45;70.70;96981.06;4860518;29;20074;-76
2023/12/26 07:04:05;;;;;;;13.18;6.15;;;;;;;2.64;70.65;97012.34;4863629;29;20521;-74
2023/12/26 07:06:35;;;;;;;14.60;6.55;;;;;;;2.42;70.29;96970.91;4876938;29;20105;-75
2023/12/26 07:09:04;;;;;;;10.85;5.10;;;;;;;2.56;70.23;96989.41;4849823;29;20041;-78
2023/12/26 07:11:33;;;;;;;10.80;5.55;;;;;;;2.32;70.64;96951.41;4864586;29;20104;-77
2023/12/26 07:14:02;;;;;;;11.82;5.57;;;;;;;2.64;71.37;96996.94;4848963;29;21546;-73
2023/12/26 07:16:35;;;;;;;10.40;5.18;;;;;;;2.28;70.83;96942.94;4860369;29;20073;-72
2023/12/26 07:19:18;;;;;;;20.73;6.30;;;;;;;2.79;70.67;97011.16;4877485;29;20048;-78
2023/12/26 07:21:45;;;;;;;13.13;5.32;;;;;;;2.67;70.41;96996.88;4865300;29;20138;-74
2023/12/26 07:24:15;;;;;;;10.57;5.22;;;;;;;2.53;70.63;96976.63;4878378;29;20101;-75
2023/12/26 07:26:47;;;;;;;14.50;5.18;;;;;;;2.99;70.88;97038.97;4875181;29;20603;-75
2023/12/26 07:29:15;;;;;;;8.80;5.05;;;;;;;2.68;70.92;96987.44;4877677;29;20052;-74
2023/12/26 07:31:54;;;;;;;;;;;;;;;;;;;;;
2023/12/26 07:34:30;;;;;;;13.30;5.47;;;;;;;3.25;70.99;97070.94;4872357;29;20128;-74
2023/12/26 07:37:01;;;;;;;10.13;4.50;;;;;;;3.18;70.74;97053.97;4860291;29;20047;-73
2023/12/26 07:39:27;;;;;;;7.80;4.75;;;;;;;2.89;71.13;97009.22;4856632;29;20103;-73
2023/12/26 07:41:56;;;;;;;8.30;4.53;;;;;;;3.39;71.42;97080.06;4877287;29;20057;-74
2023/12/26 07:44:23;;;;;;;10.48;4.72;;;;;;;3.41;71.13;97086.84;4864255;29;20068;-77
2023/12/26 07:47:19;;;;;;;9.80;4.47;;;;;;;3.26;70.87;97070.06;4845565;29;20073;-80
2023/12/26 07:49:45;;;;;;;9.07;5.15;;;;;;;3.23;71.25;97074.44;4866720;29;20048;-76
2023/12/26 07:52:24;;;;;;;9.77;4.60;;;;;;;2.78;70.89;97014.59;4869861;29;20052;-71
2023/12/26 07:55:00;;;;;;;9.63;5.00;;;;;;;3.23;70.85;97098.38;4860602;29;20046;-71
2023/12/26 07:57:32;;;;;;;9.63;5.43;;;;;;;3.13;71.10;97096.91;4863731;29;20158;-69
2023/12/26 08:00:11;;;;;;;7.90;4.88;;;;;;;3.03;71.37;97095.41;4845952;29;20053;-69
2023/12/26 08:02:43;;;;;;;11.05;5.63;;;;;;;2.83;71.25;97063.31;4875903;29;20041;-70
2023/12/26 08:05:20;;;;;;;10.32;4.88;;;;;;;2.81;70.89;97065.06;4853423;29;20516;-70
2023/12/26 08:07:46;;;;;;;7.85;5.30;;;;;;;2.97;71.54;97097.25;4859779;29;20054;-72
2023/12/26 08:10:14;;;;;;;12.50;5.45;;;;;;;3.25;71.59;97124.91;4858167;29;20404;-71
2023/12/26 08:12:41;;;;;;;12.02;6.07;;;;;;;3.36;72.12;97127.22;4861550;29;20049;-74
2023/12/26 08:15:09;;;;;;;11.55;6.07;;;;;;;3.26;71.97;97085.47;4843030;29;20042;-71
2023/12/26 08:17:37;;;;;;;12.85;5.85;;;;;;;3.53;71.42;97114.00;4859039;29;20169;-70
2023/12/26 08:20:05;;;;;;;9.80;5.38;;;;;;;3.37;72.16;97067.22;4846203;29;20045;-70
2023/12/26 08:22:52;;;;;;;9.13;5.43;;;;;;;3.87;71.66;97102.06;4831057;29;20557;-69
2023/12/26 08:25:31;;;;;;;7.63;4.95;;;;;;;4.02;71.78;97124.81;4846797;29;20049;-72
2023/12/26 08:28:00;;;;;;;10.57;5.93;;;;;;;4.03;71.94;97110.25;4844500;29;20052;-73
2023/12/26 08:30:26;;;;;;;7.97;5.07;;;;;;;3.99;71.23;97096.59;4846050;29;20046;-71
2023/12/26 08:32:57;;;;;;;7.55;4.30;;;;;;;4.07;71.37;97112.69;4847536;29;20125;-73
2023/12/26 08:35:35;;;;;;;5.78;3.75;;;;;;;4.35;71.17;97153.16;4846016;29;20049;-72
2023/12/26 08:38:04;;;;;;;6.10;3.85;;;;;;;4.05;71.30;97111.88;4861354;29;20041;-72
2023/12/26 08:40:31;;;;;;;5.32;3.30;;;;;;;4.32;71.07;97163.53;4844668;29;20113;-68
2023/12/26 08:42:59;;;;;;;8.32;4.00;;;;;;;4.11;70.84;97135.78;4846334;29;20061;-67
2023/12/26 08:45:32;;;;;;;7.78;3.45;;;;;;;4.32;70.71;97168.69;4858870;29;20076;-72
2023/12/26 08:48:18;;;;;;;5.13;3.00;;;;;;;4.39;71.11;97173.69;4851689;29;20076;-70
2023/12/26 08:51:04;;;;;;;3.47;2.58;;;;;;;4.39;70.96;97179.66;4849338;29;20041;-72
2023/12/26 08:53:50;;;;;;;3.45;2.40;;;;;;;4.40;71.14;97165.09;4835331;29;20037;-71
2023/12/26 08:56:26;;;;;;;4.50;2.08;;;;;;;4.09;70.79;97114.38;4847231;29;21034;-70
2023/12/26 08:58:59;;;;;;;3.85;1.67;;;;;;;4.58;70.26;97182.63;4864061;29;20033;-71
2023/12/26 09:01:30;;;;;;;4.65;2.08;;;;;;;4.62;70.78;97204.84;4851686;29;20041;-66
2023/12/26 09:03:59;;;;;;;2.28;1.63;;;;;;;4.63;70.41;97173.03;4841070;29;20413;-66
2023/12/26 09:06:26;;;;;;;2.90;1.60;;;;;;;4.63;70.35;97190.22;4878679;29;20346;-67
2023/12/26 09:08:54;;;;;;;3.15;1.73;;;;;;;4.64;70.39;97200.47;4884212;29;20048;-67
2023/12/26 09:11:25;;;;;;;2.42;1.83;;;;;;;4.60;70.73;97200.59;4878356;29;20193;-65
2023/12/26 09:13:52;;;;;;;5.13;2.05;;;;;;;4.68;70.48;97222.69;4866746;29;20107;-66
2023/12/26 09:16:24;;;;;;;2.88;1.50;;;;;;;4.55;70.54;97211.03;4855464;29;20114;-68
2023/12/26 09:18:53;;;;;;;2.30;1.48;;;;;;;4.31;70.26;97203.03;4853760;29;20052;-68
2023/12/26 09:21:25;;;;;;;1.63;1.40;;;;;;;4.04;70.12;97171.13;4864761;29;20055;-65
2023/12/26 09:23:52;;;;;;;2.53;1.50;;;;;;;4.17;69.84;97218.81;4866026;29;20072;-68
2023/12/26 09:26:31;;;;;;;1.92;1.27;;;;;;;4.22;69.77;97253.03;4867114;29;20466;-63
2023/12/26 09:29:00;;;;;;;1.80;1.15;;;;;;;3.99;70.32;97227.81;4882368;29;20046;-65
2023/12/26 09:31:38;;;;;;;2.22;1.45;;;;;;;3.86;70.48;97206.69;4861128;29;20175;-63
2023/12/26 09:34:10;;;;;;;1.70;1.15;;;;;;;3.95;70.10;97240.81;4862558;29;20037;-64
2023/12/26 09:36:37;;;;;;;2.83;1.35;;;;;;;3.67;70.38;97195.97;4875646;29;20466;-64
2023/12/26 09:39:06;;;;;;;2.00;1.00;;;;;;;3.61;70.31;97193.53;4876890;29;20500;-66
2023/12/26 09:41:33;;;;;;;2.45;1.52;;;;;;;3.88;70.01;97251.22;4877043;29;20150;-66
2023/12/26 09:43:59;;;;;;;2.45;1.05;;;;;;;3.78;70.40;97224.03;4829752;29;20210;-62
2023/12/26 09:46:25;;;;;;;1.98;1.25;;;;;;;4.08;70.79;97278.25;4760821;29;20324;-64
2023/12/26 09:48:51;;;;;;;1.90;1.10;;;;;;;4.12;70.37;97279.03;4837875;29;20071;-69
2023/12/26 09:51:44;;;;;;;1.50;1.10;;;;;;;4.11;69.96;97288.47;4874762;29;20049;-65
2023/12/26 09:54:16;;;;;;;1.95;1.23;;;;;;;4.17;69.82;97298.63;4876203;29;20046;-63
2023/12/26 09:56:44;;;;;;;2.45;1.63;;;;;;;4.03;69.69;97274.94;4864207;29;20041;-66
2023/12/26 09:59:11;;;;;;;3.47;1.50;;;;;;;3.86;70.00;97273.56;4859704;29;20053;-67
2023/12/26 10:01:44;;;;;;;2.70;1.70;;;;;;;4.02;70.39;97294.66;4875233;29;20098;-64
2023/12/26 10:04:10;;;;;;;2.40;1.33;;;;;;;4.09;69.95;97289.38;4878577;29;20088;-65
2023/12/26 10:06:39;;;;;;;1.98;1.10;;;;;;;4.18;69.62;97317.50;4862553;29;20326;-65
2023/12/26 10:09:07;;;;;;;2.23;1.33;;;;;;;4.09;69.62;97305.66;4874947;29;20140;-64
2023/12/26 10:11:43;;;;;;;4.15;1.52;;;;;;;4.11;68.94;97332.22;4860878;29;20049;-64
2023/12/26 10:14:09;;;;;;;2.20;1.67;;;;;;;3.91;69.39;97300.06;4878174;29;20144;-64
2023/12/26 10:16:47;;;;;;;5.07;1.50;;;;;;;4.25;69.12;97349.09;4846902;29;20045;-64
2023/12/26 10:19:17;;;;;;;1.67;1.23;;;;;;;4.25;69.35;97346.53;4874085;29;20049;-65
2023/12/26 10:21:43;;;;;;;3.40;1.58;;;;;;;4.27;68.87;97360.22;4878028;29;20051;-64
2023/12/26 10:24:31;;;;;;;3.03;1.40;;;;;;;4.28;69.09;97356.75;4850645;29;20516;-64
2023/12/26 10:27:04;;;;;;;1.90;1.38;;;;;;;4.40;68.59;97364.19;4878171;29;20041;-66
2023/12/26 10:29:37;;;;;;;3.20;1.50;;;;;;;4.05;68.43;97314.34;4878176;29;20053;-65
2023/12/26 10:32:17;;;;;;;2.45;1.40;;;;;;;4.36;68.81;97380.59;4850324;29;20071;-65
2023/12/26 10:34:46;;;;;;;2.25;1.30;;;;;;;4.20;68.05;97369.78;4879326;29;20073;-65
2023/12/26 10:37:12;;;;;;;3.38;1.73;;;;;;;4.08;67.93;97373.50;4875482;29;20041;-65
2023/12/26 10:39:41;;;;;;;2.38;1.55;;;;;;;3.98;68.12;97380.53;4861171;29;20037;-64
2023/12/26 10:42:13;;;;;;;1.95;1.45;;;;;;;3.91;68.28;97379.81;4875728;29;20059;-65
2023/12/26 10:45:04;;;;;;;2.42;1.27;;;;;;;3.82;67.79;97385.16;4879914;29;20033;-69
2023/12/26 10:47:37;;;;;;;;;;;;;;;3.86;67.92;97402.22;4863394;29;20053;-67
2023/12/26 10:50:08;;;;;;;;;;;;;;;3.77;68.43;97410.97;4851316;29;19919;-65
2023/12/26 10:53:26;;;;;;;1.67;1.13;;;;;;;3.80;68.47;97417.81;4859165;29;19926;-78
2023/12/26 10:55:57;;;;;;;1.77;1.13;;;;;;;3.67;68.11;97419.75;4847204;29;20041;-68
2023/12/26 10:58:40;;;;;;;3.13;1.10;;;;;;;3.60;68.35;97406.16;4877256;29;20611;-75
2023/12/26 13:53:44;;;;;;;1.65;1.17;;;;;;;1.58;66.50;97802.28;4862503;29;20041;-64
2023/12/26 13:56:47;;;;;;;1.67;1.17;;;;;;;1.53;65.96;97798.88;4874164;29;20048;-65
2023/12/26 13:59:51;;;;;;;1.67;1.20;;;;;;;1.57;66.15;97803.16;4865727;29;20044;-67
2023/12/26 14:03:02;;;;;;;2.80;1.52;;;;;;;1.59;66.13;97801.44;4878390;29;20049;-64
2023/12/26 14:06:06;;;;;;;1.27;1.17;;;;;;;1.55;65.65;97808.25;4876822;29;20045;-64
2023/12/26 14:09:13;;;;;;;1.83;1.30;;;;;;;1.55;65.56;97821.06;4862857;29;20072;-64
2023/12/26 14:12:16;;;;;;;1.50;1.13;;;;;;;1.62;65.51;97825.31;4877223;29;20041;-65
2023/12/26 14:15:20;;;;;;;1.90;1.20;;;;;;;1.63;65.15;97831.31;4878372;29;20052;-66
2023/12/26 14:18:24;;;;;;;2.10;1.27;;;;;;;1.66;65.13;97838.97;4860843;29;20051;-65
2023/12/26 14:21:30;;;;;;;2.10;1.27;;;;;;;1.72;64.88;97840.69;4866846;29;20544;-66
2023/12/26 14:24:34;;;;;;;2.30;1.40;;;;;;;1.70;64.68;97850.94;4876366;29;20072;-65
2023/12/26 14:27:37;;;;;;;2.33;1.58;;;;;;;1.68;64.54;97859.50;4866378;29;20040;-66
2023/12/26 14:30:41;;;;;;;1.95;1.40;;;;;;;1.70;64.22;97862.91;4857704;29;20416;-66
2023/12/26 14:33:45;;;;;;;2.55;1.65;;;;;;;1.70;64.05;97868.88;4880394;29;20052;-63
2023/12/26 14:36:50;;;;;;;3.00;1.77;;;;;;;1.76;64.04;97880.84;4874469;29;20074;-64
2023/12/26 14:39:54;;;;;;;2.65;1.50;;;;;;;1.77;63.83;97873.13;4876805;29;20071;-65
2023/12/26 14:42:59;;;;;;;2.88;1.80;;;;;;;1.71;63.30;97882.56;4867517;29;20037;-64
2023/12/26 14:46:02;;;;;;;3.90;1.60;;;;;;;1.72;63.42;97890.25;4878808;29;20516;-66
2023/12/26 14:49:07;;;;;;;2.25;1.40;;;;;;;1.65;63.18;97903.97;4878342;29;20045;-65
2023/12/26 14:52:15;;;;;;;2.47;1.58;;;;;;;1.55;62.79;97894.59;4882117;29;20043;-69
2023/12/26 14:55:19;;;;;;;2.78;1.60;;;;;;;1.52;62.90;97892.03;4862952;29;20482;-66
2023/12/26 14:58:23;;;;;;;1.38;1.00;;;;;;;1.43;62.27;97906.59;4856303;29;20516;-64
2023/12/26 15:01:30;;;;;;;1.38;1.20;;;;;;;1.44;62.78;97913.41;4874144;29;20121;-64
2023/12/26 15:03:59;;;;;;;2.05;1.30;;;;;;;1.27;61.78;97890.41;4870610;29;20041;-67